KRBG/RBG METAR and TAF weather

Enter ICAO airport designator
Station Type Date Time Source
KRBG METAR 2020/09/21 23:53 UTC NOAA

KRBG 212353Z AUTO 36008KT 10SM OVC048 24/12 A2995 RMK AO2 SLP139 T02440122 10256 20183 55005


Station Type Date Time Source
KRBG Decoded METAR 2020/09/21 23:53 UTC NOAA

ROSEBURG REGIONAL AIRPORT, OR, United States (KRBG) 43-14N 123-21W 154M
Sep 21, 2020 - 07:53 PM EDT / 2020.09.21 2353 UTC
Wind: from the N (360 degrees) at 9 MPH (8 KT):0
Visibility: 10 mile(s):0
Sky conditions: overcast
Temperature: 75.9 F (24.4 C)
Dew Point: 54.0 F (12.2 C)
Relative Humidity: 46%
Pressure (altimeter): 29.95 in. Hg (1014 hPa)
Pressure tendency: 0.01 inches (0.5 hPa) lower than three hours ago
ob: KRBG 212353Z AUTO 36008KT 10SM OVC048 24/12 A2995 RMK AO2 SLP139 T02440122 10256 20183 55005
cycle: 0

Station Type Date Time Source
KRBG TAF 2020/09/21 21:27 UTC NOAA

TAF
AMD KRBG 212125Z 2121/2218 00000KT P6SM BKN080
FM212200 36008KT P6SM SCT080 BKN150
FM220300 VRB03KT P6SM SCT040
FM220900 00000KT 6SM BR OVC008

Example: see airport list